Time;durP1;ratioP1;P1;durP2;ratioP2;P2;SDS_P1;SDS_P2;PMS_P1;PMS_P2;Temp;Humidity;BMP_temperature;BMP_pressure;BME280_temperature;BME280_humidity;BME280_pressure;Samples;Min_cycle;Max_cycle;Signal;HPM_P1;HPM_P2
2021/01/26 00:01:22;;;;;;;13.02;10.90;;;;;;;9.97;62.99;100025.22;4982550;27;97911;-61
2021/01/26 00:03:48;;;;;;;13.40;11.13;;;;;;;9.96;62.80;100025.50;4991650;27;98112;-61
2021/01/26 00:06:14;;;;;;;13.70;10.95;;;;;;;9.94;62.98;100024.94;5001596;27;118564;-61
2021/01/26 00:08:40;;;;;;;13.05;10.57;;;;;;;9.93;63.36;100017.97;4998950;27;127240;-61
2021/01/26 00:11:06;;;;;;;12.88;10.68;;;;;;;9.94;62.53;100015.00;5001561;27;109801;-61
2021/01/26 00:13:34;;;;;;;12.32;10.25;;;;;;;9.96;63.28;100018.22;5002450;27;97851;-62
2021/01/26 00:16:00;;;;;;;13.40;10.50;;;;;;;9.98;62.48;100020.63;5002316;27;98407;-61
2021/01/26 00:18:26;;;;;;;13.18;10.40;;;;;;;9.93;63.09;100026.84;4982320;27;127655;-61
2021/01/26 00:20:52;;;;;;;13.20;10.85;;;;;;;9.95;63.37;100022.00;4983161;27;106929;-61
2021/01/26 00:23:18;;;;;;;11.25;10.05;;;;;;;9.95;62.92;100023.91;5001399;27;117558;-61
2021/01/26 00:25:44;;;;;;;13.52;10.57;;;;;;;9.92;63.10;100033.31;5002277;27;98331;-61
2021/01/26 00:28:12;;;;;;;11.82;9.63;;;;;;;9.91;63.08;100044.38;4999566;27;118669;-60
2021/01/26 00:30:40;;;;;;;13.07;10.05;;;;;;;9.91;63.12;100039.00;4990181;27;98013;-61
2021/01/26 00:33:20;;;;;;;13.15;9.80;;;;;;;9.93;63.03;100034.91;4991380;27;98423;-61
2021/01/26 00:35:47;;;;;;;12.43;9.98;;;;;;;9.92;63.11;100044.09;4992736;27;117835;-61
2021/01/26 00:38:13;;;;;;;11.18;9.48;;;;;;;9.91;62.58;100036.28;4991195;27;98083;-61
2021/01/26 00:40:39;;;;;;;12.82;10.07;;;;;;;9.90;62.49;100038.16;4997632;27;112761;-61
2021/01/26 00:43:06;;;;;;;13.07;10.18;;;;;;;9.89;63.03;100039.25;4992049;27;98390;-61
2021/01/26 00:45:32;;;;;;;12.90;9.60;;;;;;;9.92;63.12;100044.09;4994769;27;98962;-61
2021/01/26 00:47:58;;;;;;;11.43;9.68;;;;;;;9.92;62.60;100048.66;4994124;27;125664;-61
2021/01/26 00:50:26;;;;;;;11.45;9.88;;;;;;;9.90;62.32;100050.81;4993433;27;112682;-60
2021/01/26 00:52:52;;;;;;;11.93;9.85;;;;;;;9.88;62.68;100051.09;4993273;27;98263;-61
2021/01/26 00:55:20;;;;;;;10.73;9.32;;;;;;;9.86;62.65;100047.06;4992621;27;124901;-61
2021/01/26 00:57:46;;;;;;;10.60;9.15;;;;;;;9.89;62.67;100049.22;4985083;28;111485;-61
2021/01/26 01:00:27;;;;;;;11.57;9.68;;;;;;;9.84;63.32;100050.03;4993946;27;111494;-61
2021/01/26 01:02:53;;;;;;;11.32;8.82;;;;;;;9.86;63.23;100060.50;5003334;27;124522;-61
2021/01/26 01:05:19;;;;;;;11.23;9.02;;;;;;;9.90;62.27;100058.88;5004129;27;128075;-61
2021/01/26 01:07:46;;;;;;;11.02;8.70;;;;;;;9.87;62.63;100059.47;4986497;27;124357;-61
2021/01/26 01:10:15;;;;;;;10.65;8.80;;;;;;;9.83;63.22;100060.00;4985953;28;97807;-61
2021/01/26 01:12:41;;;;;;;11.27;9.43;;;;;;;9.87;62.48;100070.22;4982753;28;98566;-60
2021/01/26 01:15:08;;;;;;;11.68;9.07;;;;;;;9.83;62.20;100070.75;4982355;28;127589;-61
2021/01/26 01:17:34;;;;;;;10.98;9.20;;;;;;;9.83;62.84;100072.66;4982862;28;103388;-61
2021/01/26 01:20:00;;;;;;;10.80;8.80;;;;;;;9.83;62.19;100073.44;4965391;28;113698;-61
2021/01/26 01:22:27;;;;;;;10.40;8.93;;;;;;;9.83;62.30;100073.44;4983608;28;128050;-61
2021/01/26 01:24:53;;;;;;;10.45;9.35;;;;;;;9.83;62.34;100073.44;4967785;27;98562;-61
2021/01/26 01:27:19;;;;;;;10.90;8.82;;;;;;;9.84;62.26;100066.19;4983973;27;126937;-61
2021/01/26 01:29:45;;;;;;;11.00;9.20;;;;;;;9.82;62.73;100061.09;4966799;28;98094;-61
2021/01/26 01:32:11;;;;;;;10.80;8.57;;;;;;;9.78;62.93;100070.75;4985687;27;126858;-61
2021/01/26 01:34:37;;;;;;;10.63;8.90;;;;;;;9.79;62.35;100076.97;5005542;27;98360;-61
2021/01/26 01:37:03;;;;;;;10.95;8.75;;;;;;;9.75;63.22;100073.19;4991698;27;120311;-61
2021/01/26 01:39:29;;;;;;;9.65;8.38;;;;;;;9.76;62.46;100069.44;4949222;28;111991;-61
2021/01/26 01:41:55;;;;;;;10.43;8.73;;;;;;;9.75;62.26;100075.91;4966056;28;98010;-61
2021/01/26 01:44:21;;;;;;;9.77;8.25;;;;;;;9.77;62.47;100079.09;4984388;28;112240;-61
2021/01/26 01:46:52;;;;;;;10.60;8.75;;;;;;;9.75;62.36;100071.31;4983362;27;127204;-61
2021/01/26 01:49:23;;;;;;;9.50;8.30;;;;;;;9.75;63.03;100076.69;4966931;28;97839;-61
2021/01/26 01:51:49;;;;;;;9.75;8.05;;;;;;;9.73;62.82;100078.03;4981549;28;116112;-61
2021/01/26 01:54:22;;;;;;;10.02;8.20;;;;;;;9.73;62.56;100080.72;4990373;27;126268;-61
2021/01/26 01:57:06;;;;;;;9.93;7.60;;;;;;;9.72;62.68;100081.81;4986876;27;122585;-61
2021/01/26 01:59:41;;;;;;;9.55;8.05;;;;;;;9.71;62.58;100075.63;4984805;27;107672;-61
2021/01/26 02:02:07;;;;;;;9.82;8.18;;;;;;;9.72;62.89;100082.63;4981605;28;120011;-61
2021/01/26 02:04:33;;;;;;;9.45;8.10;;;;;;;9.75;62.59;100082.09;4983324;28;127219;-61
2021/01/26 02:06:59;;;;;;;9.82;8.15;;;;;;;9.77;62.66;100076.41;4976432;27;124160;-61
2021/01/26 02:09:31;;;;;;;9.00;7.93;;;;;;;9.74;62.94;100083.13;5003605;27;98256;-61
2021/01/26 02:11:58;;;;;;;9.40;7.97;;;;;;;9.73;62.65;100081.53;4974099;28;98973;-61
2021/01/26 02:14:29;;;;;;;9.45;7.90;;;;;;;9.70;62.74;100084.75;4981733;27;127136;-61
2021/01/26 02:17:21;;;;;;;9.57;7.68;;;;;;;9.69;62.54;100087.72;4998635;27;114484;-61
2021/01/26 02:20:12;;;;;;;9.38;8.00;;;;;;;9.68;62.97;100092.31;4974188;28;98091;-60
2021/01/26 02:23:16;;;;;;;9.00;7.50;;;;;;;9.64;62.37;100091.22;4981660;27;121683;-61
2021/01/26 02:26:38;;;;;;;9.38;7.47;;;;;;;9.61;62.57;100086.38;4984546;27;98412;-62
2021/01/26 02:29:10;;;;;;;8.65;7.45;;;;;;;9.68;62.19;100088.81;4984063;27;97751;-62
2021/01/26 02:31:45;;;;;;;9.45;8.25;;;;;;;9.65;62.82;100092.84;4981460;28;109070;-61
2021/01/26 02:34:29;;;;;;;9.10;7.53;;;;;;;9.66;62.64;100093.66;4983122;27;98432;-61
2021/01/26 02:37:38;;;;;;;9.15;7.47;;;;;;;9.61;62.30;100099.84;4983267;27;98322;-60
2021/01/26 02:40:32;;;;;;;9.63;7.82;;;;;;;9.62;62.51;100100.66;4981701;27;98155;-62
2021/01/26 02:43:43;;;;;;;10.30;7.80;;;;;;;9.65;62.33;100098.22;4982545;27;98015;-61
2021/01/26 02:46:34;;;;;;;8.98;7.00;;;;;;;9.61;62.52;100096.34;4981342;28;98040;-61
2021/01/26 02:49:13;;;;;;;8.18;7.30;;;;;;;9.58;62.40;100103.88;4981513;28;98344;-61
2021/01/26 02:51:51;;;;;;;8.85;7.63;;;;;;;9.61;61.76;100102.53;4982761;27;123811;-61
2021/01/26 02:54:39;;;;;;;9.32;7.43;;;;;;;9.57;61.94;100102.25;5001484;27;109138;-61
2021/01/26 02:57:20;;;;;;;11.07;7.45;;;;;;;9.56;62.74;100103.34;5001745;27;98770;-61
2021/01/26 02:59:57;;;;;;;9.63;7.80;;;;;;;9.54;62.52;100100.09;5000313;27;98845;-61
2021/01/26 03:02:29;;;;;;;9.52;7.50;;;;;;;9.54;62.43;100093.91;4968610;27;125198;-61
2021/01/26 03:05:06;;;;;;;10.00;8.00;;;;;;;9.54;62.24;100100.09;5002447;27;108069;-61
2021/01/26 03:07:35;;;;;;;9.20;8.20;;;;;;;9.51;62.18;100100.66;4983949;27;117142;-61
2021/01/26 03:10:05;;;;;;;8.45;7.55;;;;;;;9.51;62.75;100107.91;4967280;27;122809;-61
2021/01/26 03:12:34;;;;;;;10.02;8.40;;;;;;;9.49;62.22;100102.81;4984921;27;97843;-61
2021/01/26 03:15:11;;;;;;;9.48;7.40;;;;;;;9.46;62.13;100111.41;5001184;27;97926;-61
2021/01/26 03:17:42;;;;;;;8.75;7.72;;;;;;;9.49;62.78;100115.44;4999927;27;117971;-61
2021/01/26 03:20:35;;;;;;;9.23;7.80;;;;;;;9.47;61.90;100120.28;4966769;28;98426;-61
2021/01/26 03:23:05;;;;;;;9.07;7.60;;;;;;;9.45;62.19;100119.75;4980666;28;98273;-61
2021/01/26 03:25:31;;;;;;;11.32;8.35;;;;;;;9.48;62.57;100119.22;4980759;28;110591;-61
2021/01/26 03:28:00;;;;;;;10.27;8.23;;;;;;;9.44;62.15;100113.56;4963120;28;127801;-61
2021/01/26 03:30:30;;;;;;;10.27;8.32;;;;;;;9.41;62.59;100118.66;4964388;28;98952;-61
2021/01/26 03:33:00;;;;;;;10.43;8.73;;;;;;;9.40;62.65;100114.38;4972208;27;97875;-61
2021/01/26 03:35:27;;;;;;;9.45;8.02;;;;;;;9.42;62.06;100115.69;4968425;27;98089;-61
2021/01/26 03:37:58;;;;;;;10.18;8.90;;;;;;;9.42;62.30;100118.41;4983832;27;128828;-60
2021/01/26 03:40:24;;;;;;;9.70;8.20;;;;;;;9.41;62.53;100116.78;4984457;27;97985;-61
2021/01/26 03:42:50;;;;;;;9.93;8.63;;;;;;;9.42;61.83;100118.41;4982297;27;127452;-61
2021/01/26 03:45:16;;;;;;;10.10;8.75;;;;;;;9.42;61.96;100121.09;4982435;27;113136;-62
2021/01/26 03:48:16;;;;;;;10.10;8.63;;;;;;;9.37;62.35;100125.66;4995095;27;124494;-61
2021/01/26 03:50:44;;;;;;;9.55;8.27;;;;;;;9.38;62.44;100121.88;5002839;27;98138;-61
2021/01/26 03:53:44;;;;;;;9.93;8.27;;;;;;;9.35;62.17;100123.22;5002632;27;98148;-61
2021/01/26 03:56:34;;;;;;;10.48;8.93;;;;;;;9.32;61.73;100126.47;4966334;27;102420;-61
2021/01/26 03:59:30;;;;;;;11.50;9.15;;;;;;;9.32;62.59;100123.78;5000592;27;98690;-60
2021/01/26 04:02:30;;;;;;;10.48;9.38;;;;;;;9.31;61.75;100122.97;4971908;28;98201;-60
2021/01/26 04:05:23;;;;;;;10.85;9.30;;;;;;;9.29;61.99;100121.63;4979219;28;124421;-60
2021/01/26 04:07:56;;;;;;;10.30;9.20;;;;;;;9.32;62.25;100118.41;4980364;28;107227;-61
2021/01/26 04:10:25;;;;;;;12.15;9.43;;;;;;;9.31;62.46;100117.59;4964442;28;109559;-61
2021/01/26 04:12:58;;;;;;;10.73;9.63;;;;;;;9.32;62.50;100118.41;4982787;27;122215;-61
2021/01/26 04:15:50;;;;;;;9.70;8.70;;;;;;;9.29;62.06;100117.03;4983853;28;98666;-61
2021/01/26 04:18:18;;;;;;;10.55;9.25;;;;;;;9.30;62.23;100115.97;4983760;28;108897;-61
2021/01/26 04:20:44;;;;;;;11.13;9.75;;;;;;;9.31;61.91;100120.28;4983684;28;122970;-61
2021/01/26 04:23:12;;;;;;;10.90;9.30;;;;;;;9.24;62.36;100113.56;4983794;28;99146;-61
2021/01/26 04:25:41;;;;;;;12.13;9.63;;;;;;;9.26;62.24;100112.19;4967307;28;97807;-61
2021/01/26 04:28:16;;;;;;;10.40;9.30;;;;;;;9.30;61.68;100117.84;4984334;28;97797;-61
2021/01/26 04:30:42;;;;;;;10.30;9.20;;;;;;;9.27;62.32;100121.06;4983905;27;98337;-61
2021/01/26 04:33:11;;;;;;;10.85;9.10;;;;;;;9.28;61.93;100125.38;4984695;28;128532;-61
2021/01/26 04:35:37;;;;;;;10.75;9.32;;;;;;;9.26;61.93;100119.44;4985099;27;98004;-61
2021/01/26 04:38:03;;;;;;;10.95;9.23;;;;;;;9.26;61.85;100122.16;4984742;28;97888;-60
2021/01/26 04:40:29;;;;;;;10.68;9.48;;;;;;;9.24;61.73;100127.00;4983080;28;122282;-60
2021/01/26 04:43:19;;;;;;;10.45;9.13;;;;;;;9.18;61.94;100128.06;4966027;28;127854;-61
2021/01/26 04:46:09;;;;;;;10.10;9.05;;;;;;;9.17;62.22;100131.81;4983893;28;97840;-61
2021/01/26 04:49:21;;;;;;;12.73;9.63;;;;;;;9.13;62.19;100131.53;4985989;27;97975;-61
2021/01/26 04:52:18;;;;;;;10.60;9.50;;;;;;;9.13;61.94;100130.72;4982685;28;123729;-61
2021/01/26 04:55:11;;;;;;;10.85;9.43;;;;;;;9.11;62.47;100139.03;4969825;28;121330;-61
2021/01/26 04:58:15;;;;;;;10.65;9.55;;;;;;;9.09;61.63;100139.31;4991110;27;98757;-61
2021/01/26 05:01:05;;;;;;;10.73;9.57;;;;;;;9.07;62.08;100146.84;5003054;27;97971;-61
2021/01/26 05:03:37;;;;;;;10.60;9.38;;;;;;;9.07;61.69;100138.78;5002069;27;125102;-61
2021/01/26 05:06:06;;;;;;;10.17;9.03;;;;;;;9.10;61.64;100132.06;5004105;27;98625;-61
2021/01/26 05:08:37;;;;;;;10.52;9.23;;;;;;;9.06;61.73;100139.03;5005410;27;98027;-61
2021/01/26 05:11:15;;;;;;;9.95;8.95;;;;;;;9.06;61.56;100139.03;5004610;27;97774;-61
2021/01/26 05:13:49;;;;;;;9.57;8.57;;;;;;;9.03;61.67;100140.38;5003289;27;98619;-61
2021/01/26 05:16:50;;;;;;;9.70;8.25;;;;;;;9.04;62.04;100142.00;5005606;27;100473;-61
2021/01/26 05:19:28;;;;;;;9.68;8.70;;;;;;;9.04;61.47;100130.44;4998685;27;97882;-61
2021/01/26 05:22:22;;;;;;;10.07;8.70;;;;;;;8.98;61.94;100137.69;4987047;27;109589;-61
2021/01/26 05:25:20;;;;;;;9.77;8.27;;;;;;;8.99;61.97;100136.59;4987819;27;98816;-61
2021/01/26 05:27:48;;;;;;;8.73;7.65;;;;;;;9.02;61.49;100136.06;4971675;27;99016;-61
2021/01/26 05:30:29;;;;;;;8.70;7.60;;;;;;;9.01;61.59;100129.09;4985434;28;98240;-61
2021/01/26 05:32:56;;;;;;;8.02;7.22;;;;;;;9.01;61.64;100139.84;4999657;27;98005;-62
2021/01/26 05:35:23;;;;;;;7.80;6.65;;;;;;;9.01;61.69;100141.72;4999091;27;123651;-61
2021/01/26 05:37:51;;;;;;;7.80;6.97;;;;;;;8.99;61.25;100143.84;4998949;27;98969;-60
2021/01/26 05:40:27;;;;;;;8.70;7.40;;;;;;;8.98;61.23;100139.56;4993488;27;98249;-61
2021/01/26 05:42:56;;;;;;;7.82;7.03;;;;;;;8.99;61.35;100144.66;5003486;27;97884;-61
2021/01/26 05:45:31;;;;;;;7.43;6.68;;;;;;;8.96;61.42;100142.53;4985590;27;124071;-61
2021/01/26 05:48:09;;;;;;;7.70;6.90;;;;;;;8.96;61.57;100150.59;5002770;27;101639;-61
2021/01/26 05:50:36;;;;;;;7.65;6.40;;;;;;;8.99;61.27;100144.66;5003655;27;98060;-60
2021/01/26 05:53:16;;;;;;;7.57;6.75;;;;;;;8.99;61.62;100147.34;4984668;27;97938;-61
2021/01/26 05:55:56;;;;;;;7.40;6.60;;;;;;;8.97;61.60;100140.63;4982577;28;98370;-61
2021/01/26 05:58:27;;;;;;;8.50;6.95;;;;;;;8.93;61.75;100143.03;4984583;27;98514;-61
2021/01/26 06:00:57;;;;;;;7.55;6.55;;;;;;;8.96;61.63;100139.84;4982250;28;97935;-61
2021/01/26 06:03:24;;;;;;;7.10;6.40;;;;;;;8.96;61.25;100145.22;4983510;28;97912;-61
2021/01/26 06:06:10;;;;;;;7.40;6.60;;;;;;;8.92;61.64;100144.13;4983214;27;98938;-61
2021/01/26 06:08:54;;;;;;;7.43;6.22;;;;;;;8.90;61.74;100145.44;4982874;28;98840;-61
2021/01/26 06:11:23;;;;;;;7.55;6.65;;;;;;;8.94;61.15;100136.59;4984377;27;100864;-62
2021/01/26 06:13:49;;;;;;;7.32;6.57;;;;;;;8.94;61.20;100150.03;4984483;28;97860;-61
2021/01/26 06:16:22;;;;;;;7.85;6.43;;;;;;;8.91;61.49;100139.81;4981671;28;129334;-61
2021/01/26 06:18:59;;;;;;;7.30;6.43;;;;;;;8.92;61.62;100151.34;4981817;28;117654;-61
2021/01/26 06:21:26;;;;;;;7.07;6.38;;;;;;;8.92;61.03;100146.81;5003251;27;98162;-61
2021/01/26 06:23:52;;;;;;;6.38;5.72;;;;;;;8.95;61.34;100142.78;5004150;27;97834;-61
2021/01/26 06:26:18;;;;;;;7.40;6.00;;;;;;;8.93;61.05;100147.63;5002019;27;98361;-61
2021/01/26 06:29:25;;;;;;;6.47;5.78;;;;;;;8.98;60.61;100159.19;4951591;27;108966;-61
2021/01/26 06:32:08;;;;;;;7.22;5.97;;;;;;;9.00;60.39;100156.22;4980355;28;117155;-61
2021/01/26 06:35:03;;;;;;;6.95;6.15;;;;;;;8.96;61.01;100153.28;4981040;27;97875;-61
2021/01/26 06:38:14;;;;;;;6.25;5.63;;;;;;;8.98;60.42;100153.00;4983781;27;98635;-61
2021/01/26 06:41:20;;;;;;;5.95;5.22;;;;;;;8.96;60.62;100155.97;4983538;27;99029;-61
2021/01/26 06:44:23;;;;;;;7.32;5.25;;;;;;;8.95;60.98;100156.22;4983218;28;97885;-61
2021/01/26 06:47:24;;;;;;;7.72;5.65;;;;;;;8.95;60.29;100143.56;4983965;27;99351;-61
2021/01/26 06:49:52;;;;;;;5.72;5.10;;;;;;;8.96;60.34;100155.13;4954340;28;98279;-61
2021/01/26 06:52:45;;;;;;;6.35;5.20;;;;;;;8.92;60.73;100151.34;4981652;28;98217;-61
2021/01/26 06:55:53;;;;;;;7.60;6.07;;;;;;;8.93;60.71;100150.31;4980664;28;101236;-61
2021/01/26 06:58:50;;;;;;;6.85;5.90;;;;;;;8.93;60.38;100151.09;4981586;28;108335;-61
2021/01/26 07:01:31;;;;;;;6.93;5.60;;;;;;;8.92;60.49;100148.66;4983373;28;98412;-61
2021/01/26 07:04:47;;;;;;;7.40;5.90;;;;;;;8.92;60.62;100154.88;4993058;27;98644;-61
2021/01/26 07:07:42;;;;;;;7.97;6.30;;;;;;;8.95;60.50;100148.94;5003503;27;97836;-61
2021/01/26 07:10:37;;;;;;;7.60;6.00;;;;;;;9.02;60.20;100156.78;5001552;27;109977;-61
2021/01/26 07:13:35;;;;;;;7.60;5.80;;;;;;;9.02;59.92;100156.78;5000517;27;122285;-61
2021/01/26 07:16:18;;;;;;;6.72;5.32;;;;;;;9.04;59.99;100162.72;4978133;28;114399;-61
2021/01/26 07:19:11;;;;;;;7.05;4.80;;;;;;;9.09;60.31;100160.84;4980804;28;123983;-60
2021/01/26 07:21:46;;;;;;;6.47;5.28;;;;;;;9.09;60.18;100166.22;4967929;28;97778;-61
2021/01/26 07:24:50;;;;;;;5.82;4.78;;;;;;;9.17;59.75;100166.78;4964885;28;99235;-61
2021/01/26 07:27:41;;;;;;;5.72;4.80;;;;;;;9.19;60.15;100170.81;4981801;28;98572;-61
2021/01/26 07:30:25;;;;;;;5.95;4.95;;;;;;;9.22;60.14;100164.09;4982512;27;98166;-61
2021/01/26 07:33:12;;;;;;;5.63;4.50;;;;;;;9.25;60.08;100158.19;4981008;28;98244;-61
2021/01/26 07:36:00;;;;;;;5.63;4.38;;;;;;;9.29;60.09;100160.06;4950282;28;117924;-61
2021/01/26 07:39:08;;;;;;;6.13;4.68;;;;;;;9.30;59.90;100164.38;4966809;28;98464;-61
2021/01/26 07:41:51;;;;;;;6.20;4.75;;;;;;;9.31;60.80;100157.09;4981395;28;97806;-61
2021/01/26 07:44:31;;;;;;;4.80;3.88;;;;;;;9.40;60.16;100162.81;4980848;27;105621;-61
2021/01/26 07:47:23;;;;;;;5.15;4.13;;;;;;;9.47;60.23;100160.63;4993535;27;98628;-61
2021/01/26 07:50:18;;;;;;;5.97;4.43;;;;;;;9.48;60.23;100167.66;5000946;27;98567;-61
2021/01/26 07:52:47;;;;;;;5.57;4.07;;;;;;;9.59;60.67;100163.91;4965639;28;98263;-61
2021/01/26 07:55:28;;;;;;;5.45;4.10;;;;;;;9.59;60.80;100163.91;4964466;28;102321;-61
2021/01/26 07:58:12;;;;;;;5.38;4.35;;;;;;;9.60;60.05;100165.50;4980076;27;99090;-61
2021/01/26 08:00:42;;;;;;;4.47;4.07;;;;;;;9.55;60.74;100177.09;4980636;28;98638;-61
2021/01/26 08:03:08;;;;;;;5.05;4.25;;;;;;;9.65;60.42;100180.84;4980257;28;98227;-61
2021/01/26 08:05:45;;;;;;;4.97;4.13;;;;;;;9.70;59.99;100176.25;4963668;28;111970;-62
2021/01/26 08:08:32;;;;;;;5.32;4.45;;;;;;;9.68;61.04;100178.44;4980364;28;98435;-61
2021/01/26 08:11:20;;;;;;;5.30;4.53;;;;;;;9.66;61.41;100171.69;4965377;27;102413;-61
2021/01/26 08:13:55;;;;;;;5.82;4.45;;;;;;;9.68;60.64;100174.94;4980864;28;99123;-61
2021/01/26 08:16:31;;;;;;;7.35;4.97;;;;;;;9.72;61.63;100170.63;4978840;28;98011;-61
2021/01/26 08:18:58;;;;;;;5.32;4.80;;;;;;;9.75;61.39;100173.59;4980172;28;113116;-61
2021/01/26 08:21:32;;;;;;;6.38;5.22;;;;;;;9.82;60.99;100171.44;4962836;28;116447;-61
2021/01/26 08:24:27;;;;;;;5.75;4.72;;;;;;;9.93;60.85;100171.44;4981741;27;98147;-61
2021/01/26 08:26:56;;;;;;;5.68;4.85;;;;;;;10.18;60.39;100173.28;4982702;27;98025;-62
2021/01/26 08:29:37;;;;;;;6.15;4.95;;;;;;;10.18;59.97;100176.81;4980486;28;98344;-61
2021/01/26 08:32:25;;;;;;;5.50;5.00;;;;;;;10.23;60.42;100176.81;4981756;27;98501;-62
2021/01/26 08:35:08;;;;;;;12.50;5.20;;;;;;;10.31;60.09;100181.66;4982448;27;98114;-61
2021/01/26 08:37:46;;;;;;;6.00;5.00;;;;;;;10.36;60.42;100186.22;4982797;27;97802;-62
2021/01/26 08:40:19;;;;;;;6.20;5.10;;;;;;;10.44;60.66;100182.97;4983333;27;99147;-61
2021/01/26 08:42:48;;;;;;;6.50;5.47;;;;;;;10.66;59.59;100177.28;4981864;27;99027;-61
2021/01/26 08:45:26;;;;;;;5.80;5.10;;;;;;;10.84;60.29;100177.75;4982577;27;97874;-61
2021/01/26 08:48:00;;;;;;;5.82;5.13;;;;;;;10.86;59.91;100180.97;4982050;27;97800;-61
2021/01/26 08:50:36;;;;;;;6.97;5.38;;;;;;;10.92;59.89;100180.66;4979550;28;98556;-61
2021/01/26 08:53:27;;;;;;;6.13;5.53;;;;;;;11.06;60.69;100187.09;4981919;27;99289;-61
2021/01/26 08:56:40;;;;;;;6.13;5.22;;;;;;;11.74;59.09;100185.59;4982511;27;97806;-61
2021/01/26 08:59:06;;;;;;;6.03;5.30;;;;;;;12.67;57.25;100181.78;4981156;27;97934;-62
2021/01/26 09:01:39;;;;;;;5.55;5.05;;;;;;;13.31;56.43;100173.44;4966424;28;98327;-61
2021/01/26 09:04:14;;;;;;;5.82;5.32;;;;;;;13.98;55.70;100176.72;4983186;28;98815;-61
2021/01/26 09:06:43;;;;;;;5.60;5.10;;;;;;;14.46;54.81;100179.97;4985050;27;98722;-61
2021/01/26 09:09:31;;;;;;;6.28;5.57;;;;;;;14.85;54.60;100172.44;5002873;27;98240;-61
2021/01/26 09:12:02;;;;;;;5.50;5.00;;;;;;;15.33;54.18;100172.78;5003532;27;98339;-61
2021/01/26 09:14:59;;;;;;;5.47;4.80;;;;;;;15.88;53.59;100164.44;4987856;27;98565;-61
2021/01/26 09:17:35;;;;;;;5.50;4.78;;;;;;;16.03;54.05;100171.41;4986572;27;98376;-61
2021/01/26 09:20:22;;;;;;;4.63;4.18;;;;;;;16.39;53.65;100171.28;4971602;27;97978;-61
2021/01/26 09:22:48;;;;;;;4.45;4.05;;;;;;;16.55;53.40;100162.72;5001416;27;125471;-61
2021/01/26 09:25:23;;;;;;;4.80;4.32;;;;;;;16.77;53.60;100164.56;5003995;27;127379;-61
2021/01/26 09:28:08;;;;;;;4.82;4.32;;;;;;;16.96;53.74;100177.91;5004686;27;98445;-61
2021/01/26 09:30:36;;;;;;;4.65;4.13;;;;;;;17.25;53.17;100177.31;5006306;27;97862;-61
2021/01/26 09:33:19;;;;;;;4.28;3.80;;;;;;;17.45;53.39;100170.44;4986064;27;99340;-61
2021/01/26 09:35:53;;;;;;;4.47;4.07;;;;;;;17.63;53.11;100166.59;5003906;27;97919;-61
2021/01/26 09:38:45;;;;;;;4.22;3.78;;;;;;;17.79;52.95;100173.19;5003051;27;98497;-61
2021/01/26 09:41:29;;;;;;;4.78;4.18;;;;;;;18.25;52.64;100177.13;5005598;27;97723;-61
2021/01/26 09:44:11;;;;;;;4.80;3.92;;;;;;;18.22;52.43;100182.41;5004303;27;98957;-61
2021/01/26 09:46:39;;;;;;;4.25;3.80;;;;;;;17.79;53.38;100181.38;5002062;27;122969;-61
2021/01/26 09:49:23;;;;;;;4.40;4.00;;;;;;;17.17;54.58;100196.06;5002402;27;98146;-61
2021/01/26 09:51:57;;;;;;;4.95;4.45;;;;;;;16.57;55.49;100202.09;4982733;28;97861;-61
2021/01/26 09:54:29;;;;;;;4.97;4.47;;;;;;;16.03;56.62;100195.88;4966265;28;98296;-61
2021/01/26 09:56:57;;;;;;;5.15;4.65;;;;;;;15.79;56.57;100200.81;4982610;28;98609;-61
2021/01/26 09:59:23;;;;;;;5.00;4.50;;;;;;;15.45;57.52;100202.91;4965900;28;106690;-61
2021/01/26 10:01:49;;;;;;;4.80;4.22;;;;;;;15.20;57.98;100198.84;4991752;27;112012;-61
2021/01/26 10:04:16;;;;;;;5.22;4.72;;;;;;;14.91;58.38;100204.59;5002481;27;98445;-61
2021/01/26 10:06:42;;;;;;;4.95;4.45;;;;;;;14.79;58.33;100203.50;4986013;27;98296;-61
2021/01/26 10:09:24;;;;;;;5.15;4.65;;;;;;;14.56;59.22;100206.09;5002660;27;125948;-61
2021/01/26 10:11:50;;;;;;;5.68;5.07;;;;;;;14.46;58.92;100200.81;5004547;27;97869;-60
2021/01/26 10:14:27;;;;;;;5.70;5.00;;;;;;;14.41;59.38;100198.22;4984879;27;118872;-61
2021/01/26 10:16:54;;;;;;;5.28;4.78;;;;;;;14.29;59.17;100206.03;5000602;27;98782;-62
2021/01/26 10:19:27;;;;;;;5.68;5.07;;;;;;;14.24;59.22;100205.00;4984507;27;124792;-61
2021/01/26 10:21:54;;;;;;;5.38;4.88;;;;;;;14.17;59.52;100204.59;4984982;27;107528;-61
2021/01/26 10:24:33;;;;;;;6.18;5.05;;;;;;;14.02;59.58;100206.75;5001635;27;116483;-61
2021/01/26 10:27:22;;;;;;;6.03;5.43;;;;;;;13.82;60.42;100210.59;5001551;27;121814;-61
2021/01/26 10:29:49;;;;;;;5.75;5.10;;;;;;;13.74;60.42;100210.16;4986158;27;124337;-61
2021/01/26 10:32:45;;;;;;;7.28;5.72;;;;;;;13.78;60.18;100209.56;4966850;27;105333;-61
2021/01/26 10:35:32;;;;;;;5.75;5.15;;;;;;;13.70;59.99;100219.16;5003756;27;98630;-61
2021/01/26 10:38:18;;;;;;;6.07;5.47;;;;;;;13.57;60.60;100209.09;4995132;27;99667;-61
2021/01/26 10:40:44;;;;;;;5.68;5.18;;;;;;;13.46;60.87;100216.53;5012432;27;98400;-61
2021/01/26 10:43:21;;;;;;;6.43;5.55;;;;;;;13.32;61.21;100223.75;5005541;27;113072;-60
2021/01/26 10:45:50;;;;;;;7.47;5.93;;;;;;;13.10;61.69;100216.97;4984358;27;98481;-61
2021/01/26 10:48:34;;;;;;;5.93;5.35;;;;;;;12.95;61.60;100222.56;5000273;27;99460;-61
2021/01/26 10:51:27;;;;;;;6.63;6.03;;;;;;;12.83;61.86;100225.69;4982851;27;97908;-61
2021/01/26 10:53:53;;;;;;;6.63;6.03;;;;;;;12.73;61.67;100220.38;4984878;27;97809;-61
2021/01/26 10:56:20;;;;;;;6.60;6.00;;;;;;;12.63;61.92;100226.72;4999154;27;98421;-61
2021/01/26 10:58:47;;;;;;;6.57;5.97;;;;;;;12.62;62.11;100227.00;5002696;27;110596;-61
2021/01/26 11:01:20;;;;;;;6.45;5.85;;;;;;;12.59;61.93;100228.38;5002778;27;110800;-61
2021/01/26 11:03:46;;;;;;;6.90;6.20;;;;;;;12.61;62.29;100236.19;5002048;27;98073;-61
2021/01/26 11:06:12;;;;;;;6.88;6.28;;;;;;;12.55;61.58;100235.47;5003734;27;99171;-61
2021/01/26 11:08:38;;;;;;;7.22;6.53;;;;;;;12.45;61.83;100230.94;5003181;27;103313;-61
2021/01/26 11:11:05;;;;;;;7.18;6.47;;;;;;;12.57;62.01;100227.03;5002419;27;98090;-61
2021/01/26 11:13:31;;;;;;;7.03;6.32;;;;;;;12.56;61.32;100233.56;4984842;27;101985;-61
2021/01/26 11:15:57;;;;;;;6.65;6.05;;;;;;;12.54;61.66;100228.44;4994070;27;128893;-61
2021/01/26 11:18:23;;;;;;;6.70;6.00;;;;;;;12.58;61.65;100225.97;4999140;27;127536;-61
2021/01/26 11:20:49;;;;;;;7.07;6.38;;;;;;;12.57;61.89;100225.16;4981237;27;118956;-61
2021/01/26 11:23:15;;;;;;;7.60;5.90;;;;;;;12.58;61.32;100225.97;4964789;28;109246;-61
2021/01/26 11:25:41;;;;;;;6.40;5.90;;;;;;;12.49;61.29;100228.47;4992477;27;109255;-61
2021/01/26 11:28:08;;;;;;;6.95;6.25;;;;;;;12.41;61.47;100229.09;4980611;28;105511;-61
2021/01/26 11:30:34;;;;;;;7.35;6.40;;;;;;;12.45;61.02;100224.72;4981995;28;110455;-61
2021/01/26 11:33:01;;;;;;;6.88;6.20;;;;;;;12.52;61.07;100227.91;4984053;27;97653;-61
2021/01/26 11:35:28;;;;;;;6.95;6.35;;;;;;;12.65;60.44;100224.50;4980983;27;98468;-61
2021/01/26 11:37:54;;;;;;;6.47;5.88;;;;;;;12.80;61.09;100228.97;4982367;27;98540;-61
2021/01/26 11:40:21;;;;;;;6.80;6.20;;;;;;;12.85;60.73;100219.97;4986224;27;98226;-61
2021/01/26 11:42:47;;;;;;;6.50;5.90;;;;;;;13.05;60.91;100225.16;4993911;27;98346;-61
2021/01/26 11:45:19;;;;;;;6.60;6.00;;;;;;;12.93;61.07;100213.94;4991617;27;127494;-61
2021/01/26 11:47:45;;;;;;;6.45;5.85;;;;;;;12.85;61.61;100219.97;4980887;28;102627;-61
2021/01/26 11:50:13;;;;;;;6.38;5.85;;;;;;;12.73;61.51;100223.09;4966175;28;128748;-61
2021/01/26 11:52:39;;;;;;;7.05;6.35;;;;;;;12.67;62.46;100218.84;4989061;27;98199;-61
2021/01/26 11:55:09;;;;;;;7.25;6.55;;;;;;;12.61;62.14;100219.97;4986329;27;114632;-61
2021/01/26 11:57:35;;;;;;;7.15;6.55;;;;;;;12.59;62.31;100228.38;4997791;27;98641;-61
2021/01/26 12:00:01;;;;;;;6.68;6.03;;;;;;;12.56;62.01;100226.25;4989770;27;127510;-61
2021/01/26 12:02:27;;;;;;;6.97;6.28;;;;;;;12.56;62.50;100222.75;4987321;27;97765;-61
2021/01/26 12:04:53;;;;;;;6.80;6.10;;;;;;;12.53;61.80;100224.09;4989082;27;98188;-61
2021/01/26 12:07:19;;;;;;;6.82;6.13;;;;;;;12.62;61.19;100224.31;4996999;27;128858;-61